Time;durP1;ratioP1;P1;durP2;ratioP2;P2;SDS_P1;SDS_P2;PMS_P1;PMS_P2;Temp;Humidity;BMP_temperature;BMP_pressure;BME280_temperature;BME280_humidity;BME280_pressure;Samples;Min_cycle;Max_cycle;Signal;HPM_P1;HPM_P2
2022/11/03 00:00:49;;;;;;;5.33;2.17;;;7.70;99.90;;;;;;4169558;28;20491;-81
2022/11/03 00:02:51;;;;;;;7.23;2.83;;;7.10;99.90;;;;;;4169159;28;20456;-80
2022/11/03 00:04:52;;;;;;;6.60;2.30;;;7.10;99.90;;;;;;4167261;28;20862;-82
2022/11/03 00:06:55;;;;;;;6.33;2.00;;;7.10;99.90;;;;;;4165267;28;20459;-80
2022/11/03 00:08:58;;;;;;;7.43;2.60;;;7.10;99.90;;;;;;4164726;28;20452;-79
2022/11/03 00:11:07;;;;;;;7.10;2.20;;;7.10;99.90;;;;;;4173738;28;20462;-80
2022/11/03 00:13:15;;;;;;;7.90;2.50;;;7.10;99.90;;;;;;4158784;28;20456;-81
2022/11/03 00:15:17;;;;;;;8.93;2.77;;;7.00;99.90;;;;;;4162846;28;20561;-80
2022/11/03 00:17:18;;;;;;;5.50;2.27;;;7.80;99.90;;;;;;4167424;28;20455;-82
2022/11/03 00:19:23;;;;;;;9.20;2.87;;;7.00;99.90;;;;;;4199756;28;20481;-81
2022/11/03 00:21:26;;;;;;;5.30;2.30;;;7.00;99.90;;;;;;4164270;28;20544;-79
2022/11/03 00:23:30;;;;;;;10.17;2.30;;;7.90;99.90;;;;;;4172369;28;20538;-80
2022/11/03 00:25:34;;;;;;;6.03;2.73;;;7.30;99.90;;;;;;4170844;28;20498;-80
2022/11/03 00:27:38;;;;;;;5.80;2.30;;;7.80;99.90;;;;;;4186177;28;20461;-80
2022/11/03 00:29:40;;;;;;;9.67;2.93;;;6.90;99.90;;;;;;4164809;28;20483;-79
2022/11/03 00:31:44;;;;;;;7.13;2.30;;;7.00;99.90;;;;;;4163716;28;20471;-79
2022/11/03 00:33:47;;;;;;;9.73;2.90;;;7.50;99.90;;;;;;4189896;28;20501;-80
2022/11/03 00:35:51;;;;;;;6.43;2.93;;;7.10;99.90;;;;;;4158785;28;20927;-81
2022/11/03 00:37:53;;;;;;;6.60;2.83;;;7.30;99.90;;;;;;4168982;28;20902;-79
2022/11/03 00:39:55;;;;;;;9.43;2.67;;;7.00;99.90;;;;;;4176632;28;20440;-80
2022/11/03 00:41:57;;;;;;;7.03;2.73;;;6.90;99.90;;;;;;4190337;28;20882;-79
2022/11/03 00:44:00;;;;;;;11.87;3.00;;;7.10;99.90;;;;;;4163013;28;20962;-80
2022/11/03 00:46:04;;;;;;;9.60;3.10;;;6.90;99.90;;;;;;4183449;28;20566;-80
2022/11/03 00:50:26;;;;;;;12.93;3.10;;;6.90;99.90;;;;;;4167909;28;20446;-80
2022/11/03 00:52:28;;;;;;;7.67;2.60;;;7.40;99.90;;;;;;4170512;28;20518;-80
2022/11/03 00:54:30;;;;;;;8.10;2.70;;;6.90;99.90;;;;;;4164839;28;20476;-83
2022/11/03 00:56:34;;;;;;;7.70;2.57;;;7.00;99.90;;;;;;4170831;28;20455;-80
2022/11/03 00:58:36;;;;;;;5.97;2.43;;;7.20;99.90;;;;;;4167597;28;20445;-80
2022/11/03 01:00:40;;;;;;;4.60;2.27;;;7.60;99.90;;;;;;4162704;28;21116;-80
2022/11/03 01:02:42;;;;;;;5.67;2.70;;;7.30;99.90;;;;;;4169812;28;20866;-78
2022/11/03 01:07:04;;;;;;;7.97;2.53;;;7.20;99.90;;;;;;4166363;28;21007;-79
2022/11/03 01:09:06;;;;;;;10.00;2.70;;;6.90;99.90;;;;;;4157844;28;21117;-79
2022/11/03 01:13:30;;;;;;;7.83;2.47;;;7.90;99.90;;;;;;4160607;28;20484;-79
2022/11/03 01:15:31;;;;;;;8.77;3.13;;;6.90;99.90;;;;;;4165488;28;21188;-80
2022/11/03 01:17:35;;;;;;;8.00;2.90;;;6.90;99.90;;;;;;4174299;28;20461;-82
2022/11/03 01:19:37;;;;;;;6.97;2.77;;;7.30;99.90;;;;;;4166831;28;20957;-80
2022/11/03 01:21:39;;;;;;;7.40;2.10;;;6.80;99.90;;;;;;4167895;28;20489;-80
2022/11/03 01:23:44;;;;;;;8.60;2.63;;;7.20;99.90;;;;;;4169658;28;20503;-80
2022/11/03 01:25:46;;;;;;;6.00;2.40;;;6.80;99.90;;;;;;4162784;28;20544;-78
2022/11/03 01:27:48;;;;;;;5.57;2.10;;;6.90;99.90;;;;;;4162584;28;20535;-78
2022/11/03 01:29:50;;;;;;;5.50;2.50;;;6.80;99.90;;;;;;4179914;28;20451;-79
2022/11/03 01:31:52;;;;;;;7.53;3.17;;;7.40;99.90;;;;;;4170317;28;20484;-79
2022/11/03 01:33:56;;;;;;;8.10;2.77;;;6.80;99.90;;;;;;4165306;28;20462;-79
2022/11/03 01:35:58;;;;;;;6.80;2.67;;;6.80;99.90;;;;;;4168565;28;20483;-79
2022/11/03 01:38:00;;;;;;;8.03;2.60;;;6.70;99.90;;;;;;4161684;28;20460;-78
2022/11/03 01:40:02;;;;;;;6.37;2.43;;;6.70;99.90;;;;;;4171407;28;20455;-78
2022/11/03 01:42:04;;;;;;;9.57;2.90;;;6.70;99.90;;;;;;4170464;28;20513;-80
2022/11/03 01:44:31;;;;;;;7.70;2.97;;;6.80;99.90;;;;;;4171506;28;20460;-79
2022/11/03 01:46:38;;;;;;;7.83;3.00;;;6.80;99.90;;;;;;4168229;28;20557;-79
2022/11/03 01:48:45;;;;;;;8.17;2.60;;;6.70;99.90;;;;;;4178594;28;20529;-79
2022/11/03 01:50:49;;;;;;;10.57;2.63;;;6.70;99.90;;;;;;4163827;28;20460;-79
2022/11/03 01:52:55;;;;;;;9.03;2.93;;;6.70;99.90;;;;;;4174008;28;20451;-78
2022/11/03 01:55:02;;;;;;;5.97;2.50;;;6.70;99.90;;;;;;4173060;28;20838;-80
2022/11/03 01:57:07;;;;;;;5.73;2.30;;;6.70;99.90;;;;;;4169526;28;20471;-79
2022/11/03 01:59:10;;;;;;;9.60;3.27;;;6.70;99.90;;;;;;4170353;28;20459;-79
2022/11/03 02:01:12;;;;;;;11.13;2.43;;;6.70;99.90;;;;;;4169512;28;20554;-79
2022/11/03 02:03:15;;;;;;;10.53;3.07;;;6.70;99.90;;;;;;4173699;28;21114;-79
2022/11/03 02:05:19;;;;;;;8.20;2.57;;;6.70;99.90;;;;;;4164541;28;20483;-78
2022/11/03 02:07:30;;;;;;;6.73;2.30;;;6.70;99.90;;;;;;4162468;28;20607;-79
2022/11/03 02:09:33;;;;;;;6.20;2.77;;;6.70;99.90;;;;;;4197245;28;20864;-80
2022/11/03 02:13:56;;;;;;;8.60;2.80;;;6.90;99.90;;;;;;4167137;28;20443;-78
2022/11/03 02:15:59;;;;;;;7.83;2.80;;;6.70;99.90;;;;;;4168236;28;20468;-79
2022/11/03 02:18:05;;;;;;;7.07;2.80;;;6.70;99.90;;;;;;4163989;28;20483;-79
2022/11/03 02:20:10;;;;;;;8.03;3.13;;;6.80;99.90;;;;;;4166396;28;20447;-78
2022/11/03 02:22:29;;;;;;;8.73;2.53;;;6.60;99.90;;;;;;4166941;28;21012;-81
2022/11/03 02:24:39;;;;;;;9.77;3.37;;;6.60;99.90;;;;;;4164882;28;20465;-78
2022/11/03 02:26:48;;;;;;;8.27;2.67;;;6.70;99.90;;;;;;4167949;28;20990;-79
2022/11/03 02:28:50;;;;;;;6.83;2.60;;;6.60;99.90;;;;;;4184628;28;20460;-79
2022/11/03 02:31:02;;;;;;;7.87;2.40;;;6.60;99.90;;;;;;4169637;28;20466;-78
2022/11/03 02:33:11;;;;;;;5.77;2.17;;;7.20;99.90;;;;;;4178691;28;20487;-78
2022/11/03 02:35:20;;;;;;;8.13;2.73;;;6.60;99.90;;;;;;4169623;28;20520;-79
2022/11/03 02:37:27;;;;;;;12.97;3.03;;;6.60;99.90;;;;;;4168512;28;20838;-79
2022/11/03 02:39:34;;;;;;;9.40;2.60;;;6.90;99.90;;;;;;4160532;28;20571;-80
2022/11/03 02:41:37;;;;;;;11.07;3.00;;;6.40;99.90;;;;;;4169280;28;20891;-79
2022/11/03 02:43:43;;;;;;;12.10;2.70;;;6.60;99.90;;;;;;4171952;28;20876;-78
2022/11/03 02:45:47;;;;;;;8.40;2.53;;;6.60;99.90;;;;;;4166978;28;20503;-78
2022/11/03 02:47:52;;;;;;;9.40;2.70;;;6.60;99.90;;;;;;4165453;28;20486;-81
2022/11/03 02:49:55;;;;;;;5.43;2.33;;;6.50;99.90;;;;;;4170721;28;20461;-79
2022/11/03 02:52:00;;;;;;;9.83;2.80;;;6.60;99.90;;;;;;4179223;28;20850;-79
2022/11/03 02:54:06;;;;;;;5.43;2.40;;;7.60;99.90;;;;;;4173691;28;20887;-80
2022/11/03 02:56:13;;;;;;;8.93;2.30;;;6.40;99.90;;;;;;4173127;28;20473;-80
2022/11/03 02:58:19;;;;;;;10.73;3.33;;;6.60;99.90;;;;;;4181102;28;20473;-80
2022/11/03 03:00:22;;;;;;;9.10;2.73;;;6.70;99.90;;;;;;4180290;28;20851;-79
2022/11/03 03:02:31;;;;;;;10.20;2.60;;;6.70;99.90;;;;;;4177026;28;20504;-79
2022/11/03 03:04:36;;;;;;;5.73;2.30;;;6.70;99.90;;;;;;4168999;28;20467;-79
2022/11/03 03:06:44;;;;;;;7.00;2.27;;;6.70;99.90;;;;;;4203627;28;20529;-79
2022/11/03 03:08:50;;;;;;;4.03;2.00;;;7.10;99.90;;;;;;4173524;28;20506;-79
2022/11/03 03:10:53;;;;;;;8.47;2.17;;;6.70;99.90;;;;;;4186490;28;20547;-79
2022/11/03 03:12:57;;;;;;;6.30;2.47;;;6.90;99.90;;;;;;4169180;28;20698;-79
2022/11/03 03:15:03;;;;;;;6.40;2.33;;;6.70;99.90;;;;;;4165781;28;20480;-80
2022/11/03 03:17:11;;;;;;;10.20;2.97;;;6.70;99.90;;;;;;4174829;28;20493;-79
2022/11/03 03:19:21;;;;;;;9.13;2.70;;;6.70;99.90;;;;;;4173998;28;20576;-79
2022/11/03 03:21:28;;;;;;;10.83;2.63;;;6.70;99.90;;;;;;4170149;28;20956;-80
2022/11/03 03:23:35;;;;;;;5.37;2.37;;;6.70;99.90;;;;;;4165872;28;20460;-79
2022/11/03 03:25:42;;;;;;;8.80;2.60;;;6.70;99.90;;;;;;4167225;28;20483;-79
2022/11/03 03:27:48;;;;;;;5.87;2.07;;;6.70;99.90;;;;;;4174179;28;20481;-80
2022/11/03 03:29:54;;;;;;;5.77;2.47;;;6.90;99.90;;;;;;4178101;28;20441;-80
2022/11/03 03:31:59;;;;;;;4.57;2.03;;;6.70;99.90;;;;;;4167674;28;20475;-80
2022/11/03 03:34:06;;;;;;;7.57;2.27;;;6.70;99.90;;;;;;4174630;28;20458;-79
2022/11/03 03:36:14;;;;;;;5.33;2.23;;;6.60;99.90;;;;;;4183312;28;20490;-80
2022/11/03 03:38:20;;;;;;;4.20;2.10;;;6.60;99.90;;;;;;4169458;28;20509;-80
2022/11/03 03:40:26;;;;;;;8.27;2.20;;;6.60;99.90;;;;;;4182817;28;20469;-80
2022/11/03 03:42:31;;;;;;;8.43;2.73;;;6.60;99.90;;;;;;4170900;28;20523;-79
2022/11/03 03:44:34;;;;;;;6.13;2.57;;;6.70;99.90;;;;;;4184668;28;20529;-80
2022/11/03 03:46:40;;;;;;;6.73;2.27;;;6.60;99.90;;;;;;4171380;28;20454;-80
2022/11/03 03:48:42;;;;;;;6.67;2.50;;;6.60;99.90;;;;;;4162941;28;20919;-79
2022/11/03 03:50:48;;;;;;;9.27;2.43;;;6.60;99.90;;;;;;4171924;28;20493;-80
2022/11/03 03:52:55;;;;;;;7.30;2.30;;;6.60;99.90;;;;;;4169520;28;20551;-79
2022/11/03 03:54:57;;;;;;;9.90;2.20;;;6.60;99.90;;;;;;4178009;28;20470;-80
2022/11/03 03:57:02;;;;;;;3.67;1.90;;;6.60;99.90;;;;;;4199550;28;20499;-80
2022/11/03 03:59:04;;;;;;;7.23;2.00;;;6.60;99.90;;;;;;4177723;28;20464;-80
2022/11/03 04:01:06;;;;;;;6.93;2.63;;;7.10;99.90;;;;;;4170681;28;20459;-80
2022/11/03 04:03:14;;;;;;;9.23;2.60;;;6.50;99.90;;;;;;4163808;28;20455;-80
2022/11/03 04:05:16;;;;;;;5.43;2.03;;;6.60;99.90;;;;;;4162481;28;20471;-80
2022/11/03 04:09:41;;;;;;;5.40;2.20;;;6.60;99.90;;;;;;4170422;28;20505;-80
2022/11/03 04:23:37;;;;;;;8.30;2.47;;;6.50;99.90;;;;;;4173294;28;20455;-80
2022/11/03 04:25:39;;;;;;;3.50;1.80;;;6.50;99.90;;;;;;4166460;28;20474;-82
2022/11/03 04:27:41;;;;;;;7.60;2.33;;;6.10;99.90;;;;;;4184540;28;20533;-81
2022/11/03 04:29:43;;;;;;;6.87;3.17;;;6.50;99.90;;;;;;4177855;28;20462;-81
2022/11/03 04:31:45;;;;;;;7.83;3.87;;;7.00;99.90;;;;;;4176636;28;20447;-82
2022/11/03 04:33:47;;;;;;;6.93;3.40;;;6.50;99.90;;;;;;4183561;28;20448;-81
2022/11/03 04:35:52;;;;;;;8.13;2.87;;;6.50;99.90;;;;;;4173382;28;20485;-81
2022/11/03 04:37:58;;;;;;;5.30;2.33;;;6.50;99.90;;;;;;4200886;28;20507;-79
2022/11/03 04:40:01;;;;;;;6.60;2.40;;;6.50;99.90;;;;;;4166190;28;20457;-81
2022/11/03 04:42:14;;;;;;;3.27;2.07;;;6.50;99.90;;;;;;4170237;28;20513;-80
2022/11/03 04:44:16;;;;;;;6.63;2.20;;;6.40;99.90;;;;;;4167458;28;20585;-80
2022/11/03 04:46:24;;;;;;;5.13;1.90;;;6.30;99.90;;;;;;4166230;28;20896;-79
2022/11/03 04:48:28;;;;;;;5.40;1.97;;;6.30;99.90;;;;;;4165957;28;20486;-80
2022/11/03 04:50:30;;;;;;;3.83;1.80;;;6.40;99.90;;;;;;4164342;28;20468;-80
2022/11/03 04:52:32;;;;;;;8.60;1.83;;;6.80;99.90;;;;;;4169857;28;20504;-80
2022/11/03 04:54:34;;;;;;;4.50;1.87;;;6.30;99.90;;;;;;4167953;28;20520;-80
2022/11/03 04:56:41;;;;;;;4.63;1.80;;;7.30;99.90;;;;;;4166414;28;20452;-80
2022/11/03 04:58:43;;;;;;;3.20;1.97;;;6.30;99.90;;;;;;4169283;28;20456;-80
2022/11/03 05:00:45;;;;;;;4.37;1.83;;;6.30;99.90;;;;;;4163148;28;20945;-80
2022/11/03 05:02:49;;;;;;;5.83;1.90;;;6.30;99.90;;;;;;4167954;28;20506;-81
2022/11/03 05:04:51;;;;;;;4.27;1.70;;;6.20;99.90;;;;;;4160999;28;20468;-79
2022/11/03 05:06:53;;;;;;;4.93;2.23;;;6.30;99.90;;;;;;4163102;28;20470;-80
2022/11/03 05:09:00;;;;;;;4.57;1.87;;;7.10;99.90;;;;;;4165590;28;20454;-79
2022/11/03 05:11:09;;;;;;;5.17;1.90;;;6.30;99.90;;;;;;4169417;28;20467;-79
2022/11/03 05:13:18;;;;;;;7.13;2.00;;;6.60;99.90;;;;;;4170182;28;20457;-80
2022/11/03 05:15:29;;;;;;;5.73;2.07;;;6.70;99.90;;;;;;4158018;28;20486;-80
2022/11/03 05:17:31;;;;;;;6.07;2.17;;;6.30;99.90;;;;;;4162409;28;20475;-80
2022/11/03 05:19:36;;;;;;;5.57;2.00;;;6.20;99.90;;;;;;4194714;28;20541;-79
2022/11/03 05:21:38;;;;;;;8.13;1.87;;;6.20;99.90;;;;;;4165439;28;20456;-80
2022/11/03 05:23:44;;;;;;;6.10;2.10;;;6.40;99.90;;;;;;4158267;28;20474;-82
2022/11/03 05:25:49;;;;;;;8.53;2.47;;;6.20;99.90;;;;;;4165393;28;20461;-78
2022/11/03 05:27:51;;;;;;;8.00;2.50;;;6.20;99.90;;;;;;4164117;28;20569;-79
2022/11/03 05:29:58;;;;;;;8.57;2.23;;;6.20;99.90;;;;;;4163842;28;20448;-79
2022/11/03 05:32:01;;;;;;;10.43;2.37;;;6.20;99.90;;;;;;4167571;28;20476;-80
2022/11/03 05:34:15;;;;;;;5.10;2.00;;;6.90;99.90;;;;;;4167527;28;20492;-83
2022/11/03 05:36:21;;;;;;;9.27;2.20;;;6.20;99.90;;;;;;4196589;28;20486;-81
2022/11/03 05:38:29;;;;;;;8.73;1.97;;;6.10;99.90;;;;;;4163837;28;20893;-80
2022/11/03 05:40:31;;;;;;;5.87;2.13;;;6.10;99.90;;;;;;4162808;28;20453;-78
2022/11/03 05:42:36;;;;;;;6.53;2.10;;;6.00;99.90;;;;;;4164792;28;20544;-78
2022/11/03 05:44:40;;;;;;;3.00;1.90;;;6.10;99.90;;;;;;4162555;28;20510;-79
2022/11/03 05:46:43;;;;;;;6.30;2.23;;;6.10;99.90;;;;;;4165476;28;20512;-79
2022/11/03 05:48:45;;;;;;;4.30;1.93;;;6.10;99.90;;;;;;4166374;28;20486;-84
2022/11/03 05:50:47;;;;;;;4.03;1.77;;;6.10;99.90;;;;;;4173044;28;20461;-80
2022/11/03 05:52:53;;;;;;;6.37;2.07;;;6.10;99.90;;;;;;4173723;28;20466;-82
2022/11/03 05:54:58;;;;;;;9.90;2.60;;;6.10;99.90;;;;;;4177469;28;20478;-80
2022/11/03 05:57:01;;;;;;;4.93;2.27;;;6.10;99.90;;;;;;4167241;28;20454;-79
2022/11/03 05:59:05;;;;;;;6.43;2.00;;;6.10;99.90;;;;;;4167773;28;20987;-81
2022/11/03 06:01:13;;;;;;;4.83;2.10;;;6.10;99.90;;;;;;4165975;28;20460;-82
2022/11/03 06:03:21;;;;;;;6.23;2.03;;;6.10;99.90;;;;;;4170479;28;20589;-81
2022/11/03 06:05:25;;;;;;;5.77;2.10;;;6.10;99.90;;;;;;4166667;28;20495;-80
2022/11/03 06:07:29;;;;;;;7.30;2.00;;;6.10;99.90;;;;;;4170814;28;21342;-80
2022/11/03 06:09:33;;;;;;;5.70;2.43;;;6.10;99.90;;;;;;4170219;28;20492;-79
2022/11/03 06:11:36;;;;;;;8.40;2.37;;;6.10;99.90;;;;;;4168544;28;20465;-79
2022/11/03 06:13:38;;;;;;;5.97;2.40;;;7.30;99.90;;;;;;4188031;28;20574;-79
2022/11/03 06:15:43;;;;;;;5.83;1.77;;;6.10;99.90;;;;;;4175683;28;20510;-79
2022/11/03 06:17:45;;;;;;;3.57;1.70;;;6.10;99.90;;;;;;4189112;28;20455;-79
2022/11/03 06:19:52;;;;;;;4.80;2.07;;;6.00;99.90;;;;;;4179599;28;20447;-79
2022/11/03 06:21:56;;;;;;;6.93;2.20;;;6.10;99.90;;;;;;4205693;28;20481;-78
2022/11/03 06:24:01;;;;;;;4.77;1.80;;;6.10;99.90;;;;;;4176414;28;20537;-80
2022/11/03 06:26:04;;;;;;;6.13;2.57;;;5.80;99.90;;;;;;4174908;28;20473;-80
2022/11/03 06:28:14;;;;;;;10.87;2.90;;;6.40;99.90;;;;;;4191033;28;20557;-80
2022/11/03 06:30:24;;;;;;;10.93;2.77;;;6.00;99.90;;;;;;4161509;28;20458;-79
2022/11/03 06:32:26;;;;;;;8.47;2.43;;;6.10;99.90;;;;;;4173022;28;20986;-78
2022/11/03 06:34:42;;;;;;;5.73;2.10;;;6.10;99.90;;;;;;4173107;28;20982;-79
2022/11/03 06:36:46;;;;;;;3.13;1.80;;;6.10;99.90;;;;;;4176249;28;20475;-80
2022/11/03 06:38:54;;;;;;;7.00;1.97;;;6.10;99.90;;;;;;4173096;28;20836;-79
2022/11/03 06:40:58;;;;;;;10.27;2.20;;;6.20;99.90;;;;;;4172141;28;20538;-78
2022/11/03 06:43:01;;;;;;;8.23;2.10;;;6.60;99.90;;;;;;4179237;28;20509;-79
2022/11/03 06:45:14;;;;;;;7.63;2.67;;;6.20;99.90;;;;;;4163909;28;20936;-79
2022/11/03 06:47:24;;;;;;;8.77;2.40;;;6.20;99.90;;;;;;4171336;28;20828;-78
2022/11/03 06:49:29;;;;;;;7.90;2.40;;;6.30;99.90;;;;;;4173222;28;20453;-79
2022/11/03 06:51:35;;;;;;;8.30;2.30;;;6.30;99.90;;;;;;4164535;28;20481;-79
2022/11/03 06:53:38;;;;;;;5.40;2.00;;;6.30;99.90;;;;;;4171778;28;20889;-79
2022/11/03 06:55:40;;;;;;;6.33;2.43;;;7.00;99.90;;;;;;4175293;28;20475;-79
2022/11/03 06:57:45;;;;;;;5.03;2.13;;;6.00;99.90;;;;;;4172465;28;20456;-79
2022/11/03 06:59:47;;;;;;;8.97;2.10;;;6.40;99.90;;;;;;4171055;28;20459;-78
2022/11/03 07:01:53;;;;;;;7.27;2.20;;;6.40;99.90;;;;;;4164688;28;20464;-79
2022/11/03 07:04:00;;;;;;;6.63;2.40;;;6.40;99.90;;;;;;4185420;28;20581;-79
2022/11/03 07:06:15;;;;;;;7.07;2.63;;;6.40;99.90;;;;;;4171661;28;20533;-80
2022/11/03 07:08:24;;;;;;;6.20;2.00;;;6.40;99.90;;;;;;4171455;28;21034;-79
2022/11/03 07:10:30;;;;;;;5.10;2.10;;;6.50;99.90;;;;;;4187864;28;20536;-78
2022/11/03 07:12:32;;;;;;;10.53;1.93;;;6.50;99.90;;;;;;4176435;28;20459;-79
2022/11/03 07:14:34;;;;;;;5.13;2.00;;;6.80;99.90;;;;;;4187664;28;20497;-79
2022/11/03 07:16:40;;;;;;;9.83;2.33;;;6.60;99.90;;;;;;4207313;28;20509;-78
2022/11/03 07:18:43;;;;;;;7.43;1.80;;;7.40;99.90;;;;;;4176181;28;20459;-79
2022/11/03 07:20:46;;;;;;;7.47;2.20;;;6.30;99.90;;;;;;4162756;28;20498;-79
2022/11/03 07:22:48;;;;;;;5.27;1.90;;;6.60;99.90;;;;;;4171741;28;20498;-80
2022/11/03 07:24:53;;;;;;;7.90;2.43;;;6.60;99.90;;;;;;4167711;28;20869;-79
2022/11/03 07:27:01;;;;;;;8.87;2.67;;;6.70;99.90;;;;;;4170905;28;20466;-80
2022/11/03 07:29:04;;;;;;;8.13;2.33;;;6.70;99.90;;;;;;4169503;28;20452;-80
2022/11/03 07:31:15;;;;;;;6.63;1.93;;;6.70;99.90;;;;;;4184313;28;20507;-79
2022/11/03 07:33:21;;;;;;;7.23;2.20;;;6.70;99.90;;;;;;4173512;28;21313;-79
2022/11/03 07:35:34;;;;;;;5.57;1.90;;;6.70;99.90;;;;;;4172892;28;20517;-80
2022/11/03 07:37:36;;;;;;;7.73;2.97;;;6.80;99.90;;;;;;4171353;28;20471;-80
2022/11/03 07:39:38;;;;;;;7.17;2.50;;;6.80;99.90;;;;;;4171099;28;20454;-79
2022/11/03 07:41:40;;;;;;;8.97;2.30;;;6.80;99.90;;;;;;4165388;28;20468;-79
2022/11/03 07:43:51;;;;;;;9.80;2.90;;;6.90;99.90;;;;;;4173699;28;20574;-79
2022/11/03 07:45:55;;;;;;;7.03;2.30;;;6.90;99.90;;;;;;4174616;28;20478;-78
2022/11/03 07:47:57;;;;;;;7.17;2.33;;;6.90;99.90;;;;;;4171073;28;20518;-78
2022/11/03 07:50:03;;;;;;;10.17;1.93;;;7.40;99.90;;;;;;4173438;28;20462;-78
2022/11/03 07:52:24;;;;;;;8.67;2.30;;;7.00;99.90;;;;;;4166072;28;20478;-79
2022/11/03 07:54:42;;;;;;;6.70;1.70;;;7.00;99.90;;;;;;4163897;28;20456;-80
2022/11/03 07:56:59;;;;;;;10.73;1.80;;;7.20;99.90;;;;;;4163690;28;20517;-78
2022/11/03 07:59:18;;;;;;;9.30;1.77;;;7.10;99.90;;;;;;4170899;28;20481;-80
2022/11/03 08:01:48;;;;;;;6.17;2.03;;;7.40;99.90;;;;;;4168993;28;20451;-80
2022/11/03 08:04:14;;;;;;;6.20;1.97;;;7.50;99.90;;;;;;4197324;28;20870;-79
2022/11/03 08:06:19;;;;;;;8.57;2.80;;;7.30;99.90;;;;;;4159829;28;20486;-80
2022/11/03 08:08:23;;;;;;;9.03;1.80;;;7.40;99.90;;;;;;4177493;28;20455;-80
2022/11/03 08:10:31;;;;;;;6.63;1.90;;;7.50;99.90;;;;;;4193079;28;20464;-78
2022/11/03 08:13:04;;;;;;;10.07;2.33;;;7.40;99.90;;;;;;4169245;28;20936;-80
2022/11/03 08:15:14;;;;;;;11.07;2.30;;;7.50;99.90;;;;;;4154218;28;21111;-79
2022/11/03 08:17:16;;;;;;;6.60;1.90;;;7.60;99.90;;;;;;4177740;28;20452;-81
2022/11/03 08:19:37;;;;;;;10.20;2.07;;;8.10;99.90;;;;;;4185593;28;20511;-79
2022/11/03 08:21:39;;;;;;;8.73;2.27;;;7.70;99.90;;;;;;4166026;28;20831;-80
2022/11/03 08:23:47;;;;;;;7.10;2.00;;;7.80;99.90;;;;;;4171815;28;20565;-80
2022/11/03 08:34:14;;;;;;;8.03;2.70;;;8.10;99.90;;;;;;4175893;28;20456;-79
2022/11/03 08:37:08;;;;;;;7.67;1.97;;;8.20;99.90;;;;;;4165961;28;20480;-80
2022/11/03 08:39:25;;;;;;;5.33;1.67;;;8.20;99.90;;;;;;4162259;28;20457;-79
2022/11/03 08:44:33;;;;;;;7.53;1.60;;;8.40;99.90;;;;;;4110787;28;21026;-79
2022/11/03 08:52:15;;;;;;;11.53;1.80;;;8.90;99.90;;;;;;4027509;29;20951;-78
2022/11/03 08:54:17;;;;;;;9.50;2.10;;;8.70;99.90;;;;;;4079264;28;20527;-78
2022/11/03 08:56:19;;;;;;;5.77;1.60;;;8.70;99.90;;;;;;4156487;28;20505;-77
2022/11/03 08:58:21;;;;;;;3.53;1.30;;;8.80;99.90;;;;;;4160825;28;20458;-78
2022/11/03 09:00:23;;;;;;;6.33;1.47;;;8.90;99.90;;;;;;4161821;28;20453;-78
2022/11/03 09:02:25;;;;;;;8.77;2.10;;;8.90;99.90;;;;;;4162129;28;20458;-79
2022/11/03 09:04:27;;;;;;;6.87;1.77;;;9.00;99.90;;;;;;4160556;28;20478;-77
2022/11/03 09:06:30;;;;;;;6.80;1.60;;;9.00;99.90;;;;;;4179857;28;20480;-78
2022/11/03 09:08:32;;;;;;;7.67;1.50;;;9.10;99.90;;;;;;4163879;28;20243;-78
2022/11/03 09:10:34;;;;;;;8.40;2.10;;;9.20;99.90;;;;;;4165611;28;20453;-79
2022/11/03 09:12:37;;;;;;;8.37;2.07;;;9.30;99.90;;;;;;4167936;28;20297;-78
2022/11/03 09:14:39;;;;;;;5.80;1.47;;;9.60;99.90;;;;;;4185106;28;20286;-78
2022/11/03 09:16:41;;;;;;;6.53;1.63;;;9.40;99.90;;;;;;4171713;28;20918;-78
2022/11/03 09:18:44;;;;;;;4.23;1.27;;;9.40;99.90;;;;;;4171749;28;20469;-78
2022/11/03 09:20:48;;;;;;;3.77;1.50;;;9.50;99.90;;;;;;4169530;28;21164;-78
2022/11/03 09:22:51;;;;;;;8.77;1.53;;;9.60;99.90;;;;;;4169884;28;20221;-77
2022/11/03 09:24:53;;;;;;;6.57;1.50;;;9.60;99.90;;;;;;4167640;28;20234;-78
2022/11/03 09:26:55;;;;;;;7.10;1.50;;;9.80;99.90;;;;;;4164972;28;20397;-78
2022/11/03 09:28:57;;;;;;;5.37;1.40;;;9.80;99.90;;;;;;4167970;28;20656;-77
2022/11/03 09:30:58;;;;;;;5.50;1.67;;;9.80;99.90;;;;;;4167163;28;20278;-78
2022/11/03 09:33:00;;;;;;;4.47;1.40;;;10.40;99.90;;;;;;4169311;28;20241;-77
2022/11/03 09:35:02;;;;;;;5.03;1.40;;;9.90;99.90;;;;;;4171392;28;20239;-77
2022/11/03 09:37:04;;;;;;;4.87;1.60;;;10.00;99.90;;;;;;4173164;28;20205;-78
2022/11/03 09:39:08;;;;;;;5.90;2.17;;;10.10;99.90;;;;;;4177420;28;20213;-76
2022/11/03 09:41:16;;;;;;;4.50;1.50;;;10.20;99.90;;;;;;4168193;28;20208;-77
2022/11/03 09:43:18;;;;;;;9.33;2.33;;;10.30;99.90;;;;;;4189609;28;20539;-77
2022/11/03 09:45:21;;;;;;;3.30;1.43;;;10.30;99.90;;;;;;4174154;28;20229;-78
2022/11/03 09:47:26;;;;;;;4.20;1.30;;;10.40;99.90;;;;;;4172581;28;20212;-78
2022/11/03 09:49:31;;;;;;;5.03;1.40;;;10.40;99.90;;;;;;4169871;28;20223;-76
2022/11/03 09:51:35;;;;;;;4.83;1.30;;;10.50;99.90;;;;;;4202528;28;20231;-77
2022/11/03 09:53:37;;;;;;;5.73;1.57;;;10.60;99.90;;;;;;4168465;28;20205;-77
2022/11/03 09:55:41;;;;;;;4.27;1.37;;;10.60;99.90;;;;;;4166006;28;20668;-78
2022/11/03 09:57:43;;;;;;;6.70;1.67;;;10.70;99.90;;;;;;4170681;28;20209;-77
2022/11/03 09:59:47;;;;;;;3.90;1.30;;;10.80;99.90;;;;;;4166049;28;20217;-78
2022/11/03 10:01:52;;;;;;;3.77;1.50;;;10.90;99.90;;;;;;4167766;28;20208;-77
2022/11/03 10:04:01;;;;;;;4.80;1.73;;;10.90;99.90;;;;;;4185076;28;20233;-76
2022/11/03 10:06:04;;;;;;;4.13;1.50;;;10.80;99.90;;;;;;4171871;28;20218;-78
2022/11/03 10:08:11;;;;;;;4.13;1.40;;;11.10;99.90;;;;;;4176165;28;20209;-77
2022/11/03 10:10:18;;;;;;;2.37;1.10;;;11.20;99.90;;;;;;4175752;28;20209;-77
2022/11/03 10:12:24;;;;;;;2.27;1.10;;;11.20;99.90;;;;;;4192956;28;20227;-76
2022/11/03 10:14:26;;;;;;;2.27;1.30;;;11.30;99.90;;;;;;4175121;28;20215;-77
2022/11/03 10:16:28;;;;;;;3.73;1.30;;;11.40;99.90;;;;;;4176257;28;20262;-78
2022/11/03 10:18:30;;;;;;;2.17;1.10;;;11.40;99.90;;;;;;4178145;28;20221;-77
2022/11/03 10:20:32;;;;;;;4.83;1.20;;;11.50;99.90;;;;;;4178251;28;20310;-77
2022/11/03 10:22:34;;;;;;;6.20;1.43;;;11.50;99.90;;;;;;4176830;28;20209;-77
2022/11/03 10:24:36;;;;;;;2.83;1.20;;;11.60;99.90;;;;;;4171469;28;20256;-76
2022/11/03 10:26:46;;;;;;;2.43;1.20;;;11.70;99.90;;;;;;4169019;28;20205;-78
2022/11/03 10:29:08;;;;;;;4.77;1.20;;;11.70;99.90;;;;;;4166509;28;20218;-78
2022/11/03 10:31:20;;;;;;;3.47;1.20;;;11.80;99.90;;;;;;4182306;28;20234;-79
2022/11/03 10:33:30;;;;;;;2.67;0.90;;;11.90;99.90;;;;;;4165814;28;20217;-79
2022/11/03 10:35:34;;;;;;;3.47;1.30;;;12.00;99.90;;;;;;4163642;28;20306;-78
2022/11/03 10:37:37;;;;;;;3.00;1.20;;;12.00;99.90;;;;;;4183583;28;20218;-79
2022/11/03 10:39:39;;;;;;;3.93;1.10;;;12.10;99.90;;;;;;4165749;28;20222;-79
2022/11/03 10:41:56;;;;;;;1.97;1.00;;;12.20;99.90;;;;;;4165876;28;20263;-77
2022/11/03 10:44:06;;;;;;;4.13;1.63;;;12.30;99.90;;;;;;4172875;28;20252;-79
2022/11/03 10:46:21;;;;;;;2.97;1.03;;;12.30;99.90;;;;;;4165577;28;20252;-79
2022/11/03 10:48:25;;;;;;;3.50;1.30;;;12.40;99.90;;;;;;4165771;28;20211;-78
2022/11/03 10:50:28;;;;;;;5.83;1.20;;;12.40;99.90;;;;;;4167756;28;20375;-76
2022/11/03 10:52:30;;;;;;;3.90;1.00;;;12.40;99.90;;;;;;4183756;28;20738;-79
2022/11/03 10:54:37;;;;;;;2.30;1.00;;;12.60;99.90;;;;;;4167498;28;20273;-78
2022/11/03 10:56:40;;;;;;;2.63;1.20;;;12.60;99.90;;;;;;4198636;28;20654;-77
2022/11/03 10:58:42;;;;;;;3.90;1.40;;;12.70;99.90;;;;;;4166008;28;20215;-78
2022/11/03 11:00:44;;;;;;;3.23;1.27;;;12.80;99.90;;;;;;4159916;28;20298;-77
2022/11/03 11:02:50;;;;;;;3.27;1.27;;;12.80;99.90;;;;;;4162204;28;20215;-76
2022/11/03 11:04:58;;;;;;;1.43;1.00;;;12.80;99.90;;;;;;4164254;28;20584;-78
2022/11/03 11:06:59;;;;;;;5.87;1.40;;;13.00;99.90;;;;;;4164120;28;20683;-76
2022/11/03 11:09:05;;;;;;;3.00;0.97;;;13.10;99.90;;;;;;4161344;28;20667;-77
2022/11/03 11:11:07;;;;;;;4.17;1.40;;;13.20;99.90;;;;;;4163595;28;20685;-80
2022/11/03 11:13:29;;;;;;;2.63;1.10;;;13.30;99.90;;;;;;4160793;28;20262;-79
2022/11/03 11:15:45;;;;;;;5.30;1.60;;;13.30;99.90;;;;;;4177637;28;20231;-78
2022/11/03 11:18:09;;;;;;;5.80;1.23;;;13.40;99.90;;;;;;4163366;28;20239;-75
2022/11/03 11:20:42;;;;;;;3.60;1.30;;;13.50;99.90;;;;;;4161919;28;20230;-76
2022/11/03 11:22:50;;;;;;;4.07;1.60;;;13.70;99.90;;;;;;4130115;28;20222;-76
2022/11/03 11:25:02;;;;;;;3.87;1.20;;;13.70;99.90;;;;;;4161696;28;20230;-77
2022/11/03 11:30:14;;;;;;;3.70;1.30;;;13.90;99.90;;;;;;4177610;28;20215;-78
2022/11/03 11:33:37;;;;;;;;;;;;;;;;;;;;;
2022/11/03 11:36:39;;;;;;;2.00;1.00;;;14.20;99.90;;;;;;4163684;28;20228;-79
2022/11/03 11:39:40;;;;;;;4.60;1.40;;;14.50;99.40;;;;;;4165624;28;20301;-78
2022/11/03 11:42:28;;;;;;;6.23;1.60;;;14.70;93.40;;;;;;4152984;28;20624;-77
2022/11/03 11:45:04;;;;;;;4.47;1.17;;;15.00;88.90;;;;;;4162556;28;20237;-78
2022/11/03 11:47:21;;;;;;;3.07;1.10;;;15.20;87.40;;;;;;4167416;28;20721;-78
2022/11/03 11:49:23;;;;;;;4.13;1.10;;;15.40;82.30;;;;;;4163363;28;20265;-76